createdAt,value
2024-02-24T00:01:37.594Z,99120.81
2024-02-24T00:04:39.580Z,99130.94
2024-02-24T00:07:41.562Z,99127.16
2024-02-24T00:10:43.695Z,99117.75
2024-02-24T00:13:45.851Z,99126.13
2024-02-24T00:16:47.871Z,99117.00
2024-02-24T00:19:49.830Z,99106.56
2024-02-24T00:22:51.727Z,99114.50
2024-02-24T00:25:53.726Z,99119.47
2024-02-24T00:28:55.646Z,99127.16
2024-02-24T00:31:57.634Z,99120.91
2024-02-24T00:34:59.551Z,99125.16
2024-02-24T00:38:01.516Z,99127.47
2024-02-24T00:41:03.541Z,99127.81
2024-02-24T00:44:06.720Z,99133.41
2024-02-24T00:47:08.791Z,99126.16
2024-02-24T00:50:11.481Z,99126.44
2024-02-24T00:53:13.515Z,99119.66
2024-02-24T00:56:15.522Z,99129.72
2024-02-24T00:59:17.614Z,99120.62
2024-02-24T01:02:19.603Z,99131.81
2024-02-24T01:05:21.614Z,99124.50
2024-02-24T01:08:23.614Z,99113.69
2024-02-24T01:11:25.590Z,99106.41
2024-02-24T01:14:27.613Z,99102.59
2024-02-24T01:17:29.569Z,99093.97
2024-02-24T01:20:31.514Z,99104.06
2024-02-24T01:23:34.135Z,99103.56
2024-02-24T01:26:36.172Z,99110.31
2024-02-24T01:29:38.825Z,99102.00
2024-02-24T01:32:41.285Z,99110.91
2024-02-24T01:35:43.357Z,99114.03
2024-02-24T01:38:45.385Z,99099.00
2024-02-24T01:41:47.349Z,99099.47
2024-02-24T01:44:49.316Z,99101.44
2024-02-24T01:47:51.981Z,99091.78
2024-02-24T01:50:54.052Z,99101.78
2024-02-24T01:53:56.113Z,99106.31
2024-02-24T01:56:57.978Z,99098.75
2024-02-24T01:59:59.911Z,99097.03
2024-02-24T02:03:01.833Z,99106.47
2024-02-24T02:06:04.462Z,99107.44
2024-02-24T02:09:06.616Z,99103.28
2024-02-24T02:12:08.768Z,99110.25
2024-02-24T02:15:10.819Z,99108.44
2024-02-24T02:18:13.343Z,99105.47
2024-02-24T02:21:15.726Z,99113.97
2024-02-24T02:24:17.775Z,99112.56
2024-02-24T02:27:19.668Z,99128.72
2024-02-24T02:30:21.549Z,99119.28
2024-02-24T02:33:23.660Z,99113.72
2024-02-24T02:36:25.772Z,99118.59
2024-02-24T02:39:27.694Z,99121.22
2024-02-24T02:42:29.596Z,99127.41
2024-02-24T02:45:31.490Z,99132.69
2024-02-24T02:48:33.596Z,99137.59
2024-02-24T02:51:35.607Z,99143.44
2024-02-24T02:54:37.536Z,99153.91
2024-02-24T02:57:39.455Z,99163.44
2024-02-24T03:00:41.338Z,99153.28
2024-02-24T03:03:43.285Z,99154.56
2024-02-24T03:06:45.275Z,99159.78
2024-02-24T03:09:48.177Z,99166.72
2024-02-24T03:12:50.072Z,99166.53
2024-02-24T03:15:51.963Z,99175.78
2024-02-24T03:18:53.976Z,99189.44
2024-02-24T03:21:55.944Z,99200.81
2024-02-24T03:24:57.894Z,99204.81
2024-02-24T03:27:59.805Z,99208.72
2024-02-24T03:31:02.573Z,99211.22
2024-02-24T03:34:04.530Z,99230.84
2024-02-24T03:37:06.505Z,99222.09
2024-02-24T03:40:08.806Z,99229.25
2024-02-24T03:43:10.760Z,99238.59
2024-02-24T03:46:12.652Z,99226.63
2024-02-24T03:49:14.707Z,99228.25
2024-02-24T03:52:16.696Z,99224.97
2024-02-24T03:55:18.615Z,99229.41
2024-02-24T03:58:20.547Z,99231.19
2024-02-24T04:01:22.481Z,99232.63
2024-02-24T04:04:24.517Z,99231.50
2024-02-24T04:07:26.442Z,99235.09
2024-02-24T04:10:28.319Z,99236.25
2024-02-24T04:13:30.218Z,99239.13
2024-02-24T04:16:32.093Z,99249.44
2024-02-24T04:19:34.054Z,99240.19
2024-02-24T04:22:35.966Z,99243.25
2024-02-24T04:25:37.836Z,99254.56
2024-02-24T04:28:39.743Z,99250.56
2024-02-24T04:31:41.602Z,99250.94
2024-02-24T04:34:43.561Z,99254.09
2024-02-24T04:37:45.512Z,99248.66
2024-02-24T04:40:47.536Z,99254.78
2024-02-24T04:43:49.425Z,99242.34
2024-02-24T04:46:51.306Z,99251.41
2024-02-24T04:49:53.361Z,99245.06
2024-02-24T04:52:55.239Z,99256.78
2024-02-24T04:55:57.175Z,99251.72
2024-02-24T04:58:59.076Z,99263.09
2024-02-24T05:02:00.990Z,99260.03
2024-02-24T05:05:03.090Z,99251.53
2024-02-24T05:08:05.155Z,99256.22
2024-02-24T05:11:07.159Z,99257.94
2024-02-24T05:14:09.189Z,99260.88
2024-02-24T05:17:13.395Z,99259.22
2024-02-24T05:20:15.471Z,99253.53
2024-02-24T05:23:17.376Z,99260.03
2024-02-24T05:26:22.934Z,99259.63
2024-02-24T05:29:25.039Z,99279.69
2024-02-24T05:32:26.976Z,99280.94
2024-02-24T05:35:28.947Z,99278.03
2024-02-24T05:38:30.878Z,99286.31
2024-02-24T05:41:32.801Z,99293.78
2024-02-24T05:44:34.974Z,99294.28
2024-02-24T05:47:36.965Z,99301.19
2024-02-24T05:50:39.020Z,99310.59
2024-02-24T05:53:41.528Z,99319.06
2024-02-24T05:56:43.537Z,99325.50
2024-02-24T05:59:45.996Z,99336.56
2024-02-24T06:02:47.969Z,99357.81
2024-02-24T06:05:50.107Z,99355.94
2024-02-24T06:08:52.359Z,99355.66
2024-02-24T06:11:54.365Z,99349.28
2024-02-24T06:14:56.392Z,99357.88
2024-02-24T06:17:58.409Z,99367.66
2024-02-24T06:21:00.420Z,99361.97
2024-02-24T06:24:02.389Z,99359.06
2024-02-24T06:27:04.371Z,99364.03
2024-02-24T06:30:06.578Z,99383.69
2024-02-24T06:33:08.908Z,99382.06
2024-02-24T06:36:11.015Z,99393.53
2024-02-24T06:39:12.887Z,99392.78
2024-02-24T06:42:14.884Z,99389.53
2024-02-24T06:45:16.863Z,99402.91
2024-02-24T06:48:18.925Z,99422.50
2024-02-24T06:51:21.889Z,99413.41
2024-02-24T06:54:23.769Z,99416.97
2024-02-24T06:57:25.673Z,99421.87
2024-02-24T07:00:27.662Z,99424.38
2024-02-24T07:03:31.232Z,99429.97
2024-02-24T07:06:33.240Z,99434.41
2024-02-24T07:09:35.252Z,99426.78
2024-02-24T07:12:40.877Z,99430.09
2024-02-24T07:15:45.263Z,99448.72
2024-02-24T07:18:47.326Z,99453.53
2024-02-24T07:21:49.477Z,99439.75
2024-02-24T07:24:51.451Z,99459.28
2024-02-24T07:27:53.374Z,99462.22
2024-02-24T07:30:55.553Z,99461.84
2024-02-24T07:33:57.638Z,99463.94
2024-02-24T07:37:00.930Z,99470.91
2024-02-24T07:40:02.920Z,99478.72
2024-02-24T07:43:04.891Z,99476.59
2024-02-24T07:46:06.834Z,99487.12
2024-02-24T07:49:09.345Z,99490.63
2024-02-24T07:52:11.315Z,99496.88
2024-02-24T07:55:13.334Z,99506.66
2024-02-24T07:58:15.273Z,99508.22
2024-02-24T08:01:17.392Z,99517.34
2024-02-24T08:04:20.282Z,99518.66
2024-02-24T08:07:22.268Z,99516.69
2024-02-24T08:10:24.162Z,99527.97
2024-02-24T08:13:26.163Z,99528.94
2024-02-24T08:16:28.552Z,99526.34
2024-02-24T08:19:34.879Z,99538.41
2024-02-24T08:22:36.992Z,99530.31
2024-02-24T08:25:40.493Z,99528.41
2024-02-24T08:28:42.644Z,99533.97
2024-02-24T08:31:44.603Z,99542.00
2024-02-24T08:34:46.689Z,99527.69
2024-02-24T08:37:48.653Z,99530.88
2024-02-24T08:40:50.604Z,99536.00
2024-02-24T08:43:52.731Z,99542.22
2024-02-24T08:46:54.700Z,99554.97
2024-02-24T08:49:56.726Z,99563.72
2024-02-24T08:52:58.688Z,99559.25
2024-02-24T08:56:01.414Z,99554.16
2024-02-24T08:59:03.327Z,99556.72
2024-02-24T09:02:05.712Z,99569.53
2024-02-24T09:05:07.847Z,99568.75
2024-02-24T09:08:09.833Z,99573.84
2024-02-24T09:11:12.295Z,99571.94
2024-02-24T09:14:14.626Z,99576.94
2024-02-24T09:17:16.746Z,99582.81
2024-02-24T09:20:18.778Z,99586.88
2024-02-24T09:23:20.781Z,99588.66
2024-02-24T09:26:22.901Z,99588.34
2024-02-24T09:29:25.004Z,99597.78
2024-02-24T09:32:26.932Z,99594.44
2024-02-24T09:35:28.977Z,99598.56
2024-02-24T09:38:30.960Z,99608.06
2024-02-24T09:41:32.988Z,99616.72
2024-02-24T09:44:35.014Z,99619.13
2024-02-24T09:47:36.969Z,99611.78
2024-02-24T09:50:39.101Z,99615.16
2024-02-24T09:53:41.404Z,99625.94
2024-02-24T09:56:43.467Z,99627.28
2024-02-24T09:59:45.742Z,99643.25
2024-02-24T10:02:47.812Z,99650.63
2024-02-24T10:05:52.767Z,99655.63
2024-02-24T10:08:54.862Z,99662.31
2024-02-24T10:11:56.962Z,99660.84
2024-02-24T10:14:58.917Z,99671.03
2024-02-24T10:18:01.461Z,99666.63
2024-02-24T10:21:03.805Z,99665.13
2024-02-24T10:24:05.805Z,99662.78
2024-02-24T10:27:07.764Z,99665.94
2024-02-24T10:30:10.247Z,99666.88
2024-02-24T10:33:12.598Z,99661.19
2024-02-24T10:36:15.205Z,99661.31
2024-02-24T10:39:17.537Z,99658.91
2024-02-24T10:42:19.605Z,99670.75
2024-02-24T10:45:21.605Z,99668.47
2024-02-24T10:48:23.861Z,99673.94
2024-02-24T10:51:25.882Z,99673.47
2024-02-24T10:54:30.581Z,99673.94
2024-02-24T10:57:33.108Z,99664.16
2024-02-24T11:00:38.039Z,99671.53
2024-02-24T11:03:40.218Z,99673.34
2024-02-24T11:06:53.094Z,99676.28
2024-02-24T11:09:55.552Z,99671.97
2024-02-24T11:12:57.787Z,99670.03
2024-02-24T11:16:00.678Z,99676.00
2024-02-24T11:19:02.797Z,99669.28
2024-02-24T11:22:06.589Z,99677.62
2024-02-24T11:25:08.496Z,99673.34
2024-02-24T11:28:10.396Z,99675.81
2024-02-24T11:31:18.919Z,99671.75
2024-02-24T11:34:20.898Z,99669.72
2024-02-24T11:37:22.854Z,99669.31
2024-02-24T11:40:24.787Z,99670.63
2024-02-24T11:43:26.721Z,99662.72
2024-02-24T11:46:28.701Z,99666.75
2024-02-24T11:49:30.829Z,99672.91
2024-02-24T11:52:32.790Z,99677.78
2024-02-24T11:55:35.137Z,99684.03
2024-02-24T11:58:37.079Z,99686.84
2024-02-24T12:01:38.961Z,99687.19
2024-02-24T12:04:41.043Z,99693.38
2024-02-24T12:07:43.879Z,99700.69
2024-02-24T12:10:45.867Z,99693.94
2024-02-24T12:13:48.103Z,99700.38
2024-02-24T12:16:50.006Z,99688.34
2024-02-24T12:19:52.007Z,99704.75
2024-02-24T12:22:53.907Z,99691.97
2024-02-24T12:25:55.807Z,99692.56
2024-02-24T12:28:57.729Z,99692.00
2024-02-24T12:31:59.646Z,99702.22
2024-02-24T12:35:05.520Z,99708.03
2024-02-24T12:38:08.145Z,99706.56
2024-02-24T12:41:13.573Z,99704.78
2024-02-24T12:44:15.747Z,99700.66
2024-02-24T12:47:17.891Z,99708.56
2024-02-24T12:50:20.264Z,99710.69
2024-02-24T12:53:22.957Z,99711.87
2024-02-24T12:56:24.940Z,99714.25
2024-02-24T12:59:29.766Z,99718.22
2024-02-24T13:02:32.009Z,99723.09
2024-02-24T13:05:34.844Z,99715.84
2024-02-24T13:08:36.962Z,99710.53
2024-02-24T13:11:38.985Z,99723.94
2024-02-24T13:14:41.071Z,99719.50
2024-02-24T13:17:43.083Z,99724.44
2024-02-24T13:20:45.047Z,99720.22
2024-02-24T13:23:47.037Z,99716.16
2024-02-24T13:26:49.053Z,99724.88
2024-02-24T13:29:52.570Z,99723.72
2024-02-24T13:32:54.656Z,99732.00
2024-02-24T13:35:56.935Z,99730.81
2024-02-24T13:38:58.997Z,99727.09
2024-02-24T13:42:01.075Z,99727.56
2024-02-24T13:45:03.122Z,99718.69
2024-02-24T13:48:05.295Z,99735.88
2024-02-24T13:51:07.421Z,99740.22
2024-02-24T13:54:09.385Z,99725.03
2024-02-24T13:57:11.461Z,99729.13
2024-02-24T14:00:13.696Z,99734.72
2024-02-24T14:03:15.715Z,99726.37
2024-02-24T14:06:20.362Z,99736.25
2024-02-24T14:09:24.003Z,99740.00
2024-02-24T14:12:25.993Z,99739.22
2024-02-24T14:15:27.947Z,99740.06
2024-02-24T14:18:30.248Z,99740.63
2024-02-24T14:21:32.306Z,99746.44
2024-02-24T14:24:34.259Z,99750.78
2024-02-24T14:27:37.165Z,99744.25
2024-02-24T14:30:39.460Z,99745.66
2024-02-24T14:33:41.644Z,99750.44
2024-02-24T14:36:43.645Z,99753.28
2024-02-24T14:39:45.511Z,99749.94
2024-02-24T14:42:47.441Z,99750.50
2024-02-24T14:45:49.365Z,99745.91
2024-02-24T14:48:52.449Z,99744.00
2024-02-24T14:51:55.712Z,99753.66
2024-02-24T14:54:57.606Z,99757.41
2024-02-24T14:57:59.523Z,99752.22
2024-02-24T15:01:01.546Z,99761.97
2024-02-24T15:04:03.611Z,99763.50
2024-02-24T15:07:05.657Z,99755.59
2024-02-24T15:10:07.646Z,99762.41
2024-02-24T15:13:09.644Z,99760.28
2024-02-24T15:16:11.635Z,99771.94
2024-02-24T15:19:14.130Z,99771.16
2024-02-24T15:22:16.038Z,99764.87
2024-02-24T15:25:18.007Z,99765.88
2024-02-24T15:28:19.976Z,99770.22
2024-02-24T15:31:23.366Z,99774.88
2024-02-24T15:34:26.529Z,99779.81
2024-02-24T15:37:28.612Z,99781.44
2024-02-24T15:40:33.555Z,99780.87
2024-02-24T15:43:36.457Z,99777.47
2024-02-24T15:46:38.316Z,99788.50
2024-02-24T15:49:41.318Z,99791.28
2024-02-24T15:52:45.022Z,99792.12
2024-02-24T15:55:46.999Z,99803.31
2024-02-24T15:58:49.010Z,99808.66
2024-02-24T16:01:50.974Z,99810.44
2024-02-24T16:04:52.983Z,99812.81
2024-02-24T16:07:54.887Z,99809.22
2024-02-24T16:10:56.875Z,99813.25
2024-02-24T16:14:00.396Z,99827.69
2024-02-24T16:17:04.556Z,99833.91
2024-02-24T16:20:07.637Z,99834.53
2024-02-24T16:23:09.654Z,99837.47
2024-02-24T16:26:14.430Z,99837.25
2024-02-24T16:29:16.405Z,99839.47
2024-02-24T16:32:18.341Z,99846.34
2024-02-24T16:35:20.274Z,99850.47
2024-02-24T16:38:22.236Z,99859.72
2024-02-24T16:41:24.411Z,99859.72
2024-02-24T16:44:26.708Z,99857.09
2024-02-24T16:50:47.651Z,99875.09
2024-02-24T16:53:49.605Z,99870.44
2024-02-24T16:56:51.767Z,99873.91
2024-02-24T16:59:53.710Z,99878.59
2024-02-24T17:02:55.928Z,99879.97
2024-02-24T17:05:58.749Z,99882.16
2024-02-24T17:09:00.787Z,99892.22
2024-02-24T17:12:04.023Z,99889.56
2024-02-24T17:15:08.668Z,99897.34
2024-02-24T17:18:18.322Z,99892.22
2024-02-24T17:21:23.292Z,99891.78
2024-02-24T17:24:25.317Z,99893.41
2024-02-24T17:27:27.485Z,99905.28
2024-02-24T17:30:29.351Z,99900.19
2024-02-24T17:33:31.326Z,99908.34
2024-02-24T17:36:39.856Z,99918.13
2024-02-24T17:39:43.591Z,99918.31
2024-02-24T17:42:45.479Z,99929.44
2024-02-24T17:45:47.391Z,99931.59
2024-02-24T17:48:49.460Z,99927.94
2024-02-24T17:51:52.116Z,99929.06
2024-02-24T17:54:54.349Z,99916.00
2024-02-24T17:57:56.269Z,99912.72
2024-02-24T18:00:58.239Z,99926.88
2024-02-24T18:04:01.327Z,99922.59
2024-02-24T18:07:03.391Z,99928.44
2024-02-24T18:10:05.564Z,99926.06
2024-02-24T18:13:07.563Z,99933.84
2024-02-24T18:16:12.304Z,99930.16
2024-02-24T18:19:14.323Z,99931.25
2024-02-24T18:22:16.346Z,99931.94
2024-02-24T18:25:18.348Z,99937.59
2024-02-24T18:28:20.350Z,99936.75
2024-02-24T18:31:22.319Z,99936.53
2024-02-24T18:34:24.304Z,99936.53
2024-02-24T18:37:26.259Z,99934.38
2024-02-24T18:40:28.267Z,99933.34
2024-02-24T18:43:30.217Z,99938.53
2024-02-24T18:46:32.297Z,99939.47
2024-02-24T18:49:36.101Z,99930.19
2024-02-24T18:52:41.452Z,99940.22
2024-02-24T18:55:43.468Z,99940.59
2024-02-24T18:58:45.476Z,99939.66
2024-02-24T19:01:47.596Z,99948.75
2024-02-24T19:04:51.601Z,99955.87
2024-02-24T19:07:53.929Z,99949.81
2024-02-24T19:10:56.072Z,99954.41
2024-02-24T19:14:00.932Z,99962.91
2024-02-24T19:17:03.047Z,99960.06
2024-02-24T19:20:05.786Z,99960.69
2024-02-24T19:23:08.018Z,99965.34
2024-02-24T19:26:10.251Z,99961.88
2024-02-24T19:29:12.451Z,99963.06
2024-02-24T19:32:14.375Z,99966.44
2024-02-24T19:35:16.350Z,99964.28
2024-02-24T19:38:18.461Z,99967.72
2024-02-24T19:41:20.486Z,99967.03
2024-02-24T19:44:22.821Z,99970.72
2024-02-24T19:47:25.466Z,99968.00
2024-02-24T19:50:28.415Z,99984.94
2024-02-24T19:53:30.491Z,99982.25
2024-02-24T19:56:32.930Z,99971.31
2024-02-24T19:59:40.050Z,99981.53
2024-02-24T20:02:42.190Z,99986.47
2024-02-24T20:05:44.364Z,99970.06
2024-02-24T20:08:46.444Z,99969.69
2024-02-24T20:11:48.520Z,99966.22
2024-02-24T20:14:50.875Z,99975.03
2024-02-24T20:17:53.042Z,99976.28
2024-02-24T20:20:58.890Z,99967.81
2024-02-24T20:24:00.996Z,99972.88
2024-02-24T20:27:03.512Z,99970.34
2024-02-24T20:30:05.796Z,99978.81
2024-02-24T20:33:08.765Z,99979.06
2024-02-24T20:36:10.965Z,99975.00
2024-02-24T20:39:14.431Z,99983.91
2024-02-24T20:42:16.838Z,99980.28
2024-02-24T20:45:18.964Z,99976.72
2024-02-24T20:48:21.477Z,99986.53
2024-02-24T20:51:23.649Z,99979.97
2024-02-24T20:54:25.730Z,99984.06
2024-02-24T20:57:27.689Z,99977.38
2024-02-24T21:00:29.557Z,99982.09
2024-02-24T21:03:31.675Z,99979.94
2024-02-24T21:06:33.730Z,99988.75
2024-02-24T21:09:35.874Z,99992.00
2024-02-24T21:12:37.800Z,99994.75
2024-02-24T21:15:39.752Z,99994.47
2024-02-24T21:18:41.905Z,100004.41
2024-02-24T21:21:43.973Z,100006.53
2024-02-24T21:24:45.838Z,100014.38
2024-02-24T21:27:47.875Z,100021.94
2024-02-24T21:30:49.817Z,100019.22
2024-02-24T21:33:51.927Z,100010.34
2024-02-24T21:36:53.917Z,100020.59
2024-02-24T21:39:57.184Z,100029.69
2024-02-24T21:43:00.092Z,100026.91
2024-02-24T21:46:01.993Z,100028.38
2024-02-24T21:49:04.676Z,100023.03
2024-02-24T21:52:08.475Z,100026.38
2024-02-24T21:55:10.725Z,100027.03
2024-02-24T21:58:12.601Z,100030.59
2024-02-24T22:01:16.650Z,100033.91
2024-02-24T22:04:18.745Z,100031.47
2024-02-24T22:07:22.710Z,100021.13
2024-02-24T22:10:25.101Z,100018.59
2024-02-24T22:13:27.005Z,100016.84
2024-02-24T22:16:28.858Z,100010.25
2024-02-24T22:19:32.741Z,100012.12
2024-02-24T22:22:34.804Z,100021.00
2024-02-24T22:25:36.713Z,100026.69
2024-02-24T22:28:38.598Z,100031.69
2024-02-24T22:31:41.642Z,100017.84
2024-02-24T22:34:43.576Z,100024.28
2024-02-24T22:37:45.564Z,100025.25
2024-02-24T22:40:48.137Z,100028.34
2024-02-24T22:43:50.300Z,100019.00
2024-02-24T22:46:52.348Z,100015.31
2024-02-24T22:49:54.293Z,100019.25
2024-02-24T22:52:56.218Z,100020.47
2024-02-24T22:55:58.119Z,100009.44
2024-02-24T22:59:02.404Z,100007.97
2024-02-24T23:02:04.951Z,100010.50
2024-02-24T23:05:07.045Z,100006.06
2024-02-24T23:08:09.250Z,100005.59
2024-02-24T23:11:16.698Z,100003.31
2024-02-24T23:14:24.294Z,99998.34
2024-02-24T23:17:26.474Z,100011.09
2024-02-24T23:20:28.543Z,100001.97
2024-02-24T23:23:30.471Z,100014.69
2024-02-24T23:26:32.718Z,100008.31
2024-02-24T23:29:34.800Z,100016.37
2024-02-24T23:32:36.805Z,100021.66
2024-02-24T23:35:38.769Z,100015.25
2024-02-24T23:38:40.797Z,100010.37
2024-02-24T23:41:42.768Z,100019.44
2024-02-24T23:44:44.950Z,100019.00
2024-02-24T23:47:47.067Z,100007.69
2024-02-24T23:50:49.052Z,100012.28
2024-02-24T23:53:51.717Z,100014.06
2024-02-24T23:56:54.027Z,100012.22
2024-02-24T23:59:55.977Z,100020.97
